sensor_id;sensor_type;location;lat;lon;timestamp;P1;durP1;ratioP1;P2;durP2;ratioP2
79677;SDS011;69145;45.544;10.214;2023-04-15T00:01:17;3.20;;;1.57;;
79677;SDS011;69145;45.544;10.214;2023-04-15T00:03:43;3.42;;;1.35;;
79677;SDS011;69145;45.544;10.214;2023-04-15T00:06:10;3.90;;;1.70;;
79677;SDS011;69145;45.544;10.214;2023-04-15T00:08:35;4.78;;;1.88;;
79677;SDS011;69145;45.544;10.214;2023-04-15T00:11:00;4.67;;;1.30;;
79677;SDS011;69145;45.544;10.214;2023-04-15T00:13:29;5.55;;;2.65;;
79677;SDS011;69145;45.544;10.214;2023-04-15T00:15:55;3.97;;;1.77;;
79677;SDS011;69145;45.544;10.214;2023-04-15T00:18:20;3.75;;;1.92;;
79677;SDS011;69145;45.544;10.214;2023-04-15T00:20:46;4.40;;;1.75;;
79677;SDS011;69145;45.544;10.214;2023-04-15T00:23:11;4.15;;;1.90;;
79677;SDS011;69145;45.544;10.214;2023-04-15T00:25:37;4.03;;;1.67;;
79677;SDS011;69145;45.544;10.214;2023-04-15T00:28:03;3.92;;;1.67;;
79677;SDS011;69145;45.544;10.214;2023-04-15T00:30:28;4.80;;;1.90;;
79677;SDS011;69145;45.544;10.214;2023-04-15T00:32:54;3.90;;;1.90;;
79677;SDS011;69145;45.544;10.214;2023-04-15T00:35:19;4.27;;;2.10;;
79677;SDS011;69145;45.544;10.214;2023-04-15T00:37:44;4.07;;;2.08;;
79677;SDS011;69145;45.544;10.214;2023-04-15T00:40:13;4.57;;;1.77;;
79677;SDS011;69145;45.544;10.214;2023-04-15T00:42:42;4.35;;;1.83;;
79677;SDS011;69145;45.544;10.214;2023-04-15T00:45:08;5.72;;;1.98;;
79677;SDS011;69145;45.544;10.214;2023-04-15T00:47:35;4.35;;;2.00;;
79677;SDS011;69145;45.544;10.214;2023-04-15T00:50:01;3.30;;;1.83;;
79677;SDS011;69145;45.544;10.214;2023-04-15T00:52:27;3.83;;;1.88;;
79677;SDS011;69145;45.544;10.214;2023-04-15T00:54:52;3.93;;;1.93;;
79677;SDS011;69145;45.544;10.214;2023-04-15T00:57:17;5.20;;;1.67;;
79677;SDS011;69145;45.544;10.214;2023-04-15T00:59:43;4.03;;;1.73;;
79677;SDS011;69145;45.544;10.214;2023-04-15T01:02:08;3.85;;;2.22;;
79677;SDS011;69145;45.544;10.214;2023-04-15T01:04:34;3.93;;;1.80;;
79677;SDS011;69145;45.544;10.214;2023-04-15T01:07:00;4.22;;;1.73;;
79677;SDS011;69145;45.544;10.214;2023-04-15T01:09:26;4.35;;;2.00;;
79677;SDS011;69145;45.544;10.214;2023-04-15T01:11:51;3.90;;;1.70;;
79677;SDS011;69145;45.544;10.214;2023-04-15T01:14:18;5.45;;;1.65;;
79677;SDS011;69145;45.544;10.214;2023-04-15T01:16:43;3.92;;;2.30;;
79677;SDS011;69145;45.544;10.214;2023-04-15T01:19:10;4.97;;;1.92;;
79677;SDS011;69145;45.544;10.214;2023-04-15T01:21:36;3.83;;;2.05;;
79677;SDS011;69145;45.544;10.214;2023-04-15T01:24:08;3.67;;;1.65;;
79677;SDS011;69145;45.544;10.214;2023-04-15T01:26:38;3.70;;;1.50;;
79677;SDS011;69145;45.544;10.214;2023-04-15T01:29:04;3.08;;;1.30;;
79677;SDS011;69145;45.544;10.214;2023-04-15T01:31:31;4.47;;;1.83;;
79677;SDS011;69145;45.544;10.214;2023-04-15T01:33:56;3.45;;;1.42;;
79677;SDS011;69145;45.544;10.214;2023-04-15T01:36:22;4.05;;;1.67;;
79677;SDS011;69145;45.544;10.214;2023-04-15T01:38:48;3.05;;;1.40;;
79677;SDS011;69145;45.544;10.214;2023-04-15T01:41:13;4.40;;;1.73;;
79677;SDS011;69145;45.544;10.214;2023-04-15T01:43:38;4.72;;;1.55;;
79677;SDS011;69145;45.544;10.214;2023-04-15T01:46:04;6.03;;;1.40;;
79677;SDS011;69145;45.544;10.214;2023-04-15T01:48:30;3.78;;;1.80;;
79677;SDS011;69145;45.544;10.214;2023-04-15T01:50:56;4.20;;;1.42;;
79677;SDS011;69145;45.544;10.214;2023-04-15T01:53:23;3.58;;;1.42;;
79677;SDS011;69145;45.544;10.214;2023-04-15T01:55:50;2.75;;;1.08;;
79677;SDS011;69145;45.544;10.214;2023-04-15T01:58:16;3.17;;;1.25;;
79677;SDS011;69145;45.544;10.214;2023-04-15T02:00:41;3.03;;;1.25;;
79677;SDS011;69145;45.544;10.214;2023-04-15T02:03:07;4.53;;;1.37;;
79677;SDS011;69145;45.544;10.214;2023-04-15T02:05:32;3.10;;;1.20;;
79677;SDS011;69145;45.544;10.214;2023-04-15T02:07:57;3.17;;;1.33;;
79677;SDS011;69145;45.544;10.214;2023-04-15T02:10:23;3.20;;;1.13;;
79677;SDS011;69145;45.544;10.214;2023-04-15T02:12:48;3.50;;;1.25;;
79677;SDS011;69145;45.544;10.214;2023-04-15T02:15:14;3.93;;;1.40;;
79677;SDS011;69145;45.544;10.214;2023-04-15T02:17:39;3.50;;;1.27;;
79677;SDS011;69145;45.544;10.214;2023-04-15T02:20:05;4.18;;;1.25;;
79677;SDS011;69145;45.544;10.214;2023-04-15T02:22:32;3.92;;;1.02;;
79677;SDS011;69145;45.544;10.214;2023-04-15T02:24:58;3.40;;;1.13;;
79677;SDS011;69145;45.544;10.214;2023-04-15T02:27:23;4.90;;;1.70;;
79677;SDS011;69145;45.544;10.214;2023-04-15T02:29:48;3.17;;;1.00;;
79677;SDS011;69145;45.544;10.214;2023-04-15T02:32:17;3.20;;;1.42;;
79677;SDS011;69145;45.544;10.214;2023-04-15T02:34:42;3.58;;;1.15;;
79677;SDS011;69145;45.544;10.214;2023-04-15T02:37:08;3.20;;;1.35;;
79677;SDS011;69145;45.544;10.214;2023-04-15T02:39:35;4.10;;;1.38;;
79677;SDS011;69145;45.544;10.214;2023-04-15T02:42:01;2.67;;;0.93;;
79677;SDS011;69145;45.544;10.214;2023-04-15T02:44:26;2.90;;;1.02;;
79677;SDS011;69145;45.544;10.214;2023-04-15T02:46:52;3.00;;;1.13;;
79677;SDS011;69145;45.544;10.214;2023-04-15T02:49:22;3.40;;;1.23;;
79677;SDS011;69145;45.544;10.214;2023-04-15T02:51:47;4.97;;;1.40;;
79677;SDS011;69145;45.544;10.214;2023-04-15T02:54:15;4.40;;;0.95;;
79677;SDS011;69145;45.544;10.214;2023-04-15T02:56:41;2.92;;;1.38;;
79677;SDS011;69145;45.544;10.214;2023-04-15T02:59:06;7.03;;;0.90;;
79677;SDS011;69145;45.544;10.214;2023-04-15T03:01:32;3.57;;;1.13;;
79677;SDS011;69145;45.544;10.214;2023-04-15T03:03:57;3.72;;;1.15;;
79677;SDS011;69145;45.544;10.214;2023-04-15T03:06:22;3.23;;;1.60;;
79677;SDS011;69145;45.544;10.214;2023-04-15T03:08:48;4.00;;;1.15;;
79677;SDS011;69145;45.544;10.214;2023-04-15T03:11:14;2.72;;;1.00;;
79677;SDS011;69145;45.544;10.214;2023-04-15T03:13:40;2.85;;;1.25;;
79677;SDS011;69145;45.544;10.214;2023-04-15T03:16:07;3.63;;;1.50;;
79677;SDS011;69145;45.544;10.214;2023-04-15T03:18:32;3.00;;;1.00;;
79677;SDS011;69145;45.544;10.214;2023-04-15T03:20:58;4.70;;;1.10;;
79677;SDS011;69145;45.544;10.214;2023-04-15T03:23:23;3.70;;;1.10;;
79677;SDS011;69145;45.544;10.214;2023-04-15T03:25:49;2.92;;;1.13;;
79677;SDS011;69145;45.544;10.214;2023-04-15T03:28:14;3.85;;;1.20;;
79677;SDS011;69145;45.544;10.214;2023-04-15T03:30:40;2.78;;;0.93;;
79677;SDS011;69145;45.544;10.214;2023-04-15T03:33:06;4.65;;;1.48;;
79677;SDS011;69145;45.544;10.214;2023-04-15T03:35:32;3.17;;;1.10;;
79677;SDS011;69145;45.544;10.214;2023-04-15T03:37:58;3.33;;;1.00;;
79677;SDS011;69145;45.544;10.214;2023-04-15T03:40:23;4.32;;;1.20;;
79677;SDS011;69145;45.544;10.214;2023-04-15T03:42:48;2.80;;;1.20;;
79677;SDS011;69145;45.544;10.214;2023-04-15T03:45:14;3.07;;;1.20;;
79677;SDS011;69145;45.544;10.214;2023-04-15T03:47:39;3.58;;;1.30;;
79677;SDS011;69145;45.544;10.214;2023-04-15T03:50:05;4.38;;;1.27;;
79677;SDS011;69145;45.544;10.214;2023-04-15T03:52:31;3.58;;;1.20;;
79677;SDS011;69145;45.544;10.214;2023-04-15T03:54:56;3.95;;;1.30;;
79677;SDS011;69145;45.544;10.214;2023-04-15T03:57:21;3.50;;;1.23;;
79677;SDS011;69145;45.544;10.214;2023-04-15T03:59:47;3.73;;;1.30;;
79677;SDS011;69145;45.544;10.214;2023-04-15T04:02:12;3.90;;;1.23;;
79677;SDS011;69145;45.544;10.214;2023-04-15T04:04:37;2.97;;;1.00;;
79677;SDS011;69145;45.544;10.214;2023-04-15T04:07:03;4.07;;;1.00;;
79677;SDS011;69145;45.544;10.214;2023-04-15T04:09:28;5.82;;;1.58;;
79677;SDS011;69145;45.544;10.214;2023-04-15T04:11:53;2.90;;;1.23;;
79677;SDS011;69145;45.544;10.214;2023-04-15T04:14:20;4.03;;;1.55;;
79677;SDS011;69145;45.544;10.214;2023-04-15T04:16:45;3.10;;;1.15;;
79677;SDS011;69145;45.544;10.214;2023-04-15T04:19:11;4.03;;;1.17;;
79677;SDS011;69145;45.544;10.214;2023-04-15T04:21:36;4.17;;;1.33;;
79677;SDS011;69145;45.544;10.214;2023-04-15T04:24:03;3.30;;;1.23;;
79677;SDS011;69145;45.544;10.214;2023-04-15T04:26:29;5.70;;;1.30;;
79677;SDS011;69145;45.544;10.214;2023-04-15T04:28:54;3.10;;;1.25;;
79677;SDS011;69145;45.544;10.214;2023-04-15T04:31:19;2.78;;;1.13;;
79677;SDS011;69145;45.544;10.214;2023-04-15T04:33:45;4.07;;;1.23;;
79677;SDS011;69145;45.544;10.214;2023-04-15T04:36:10;3.23;;;1.30;;
79677;SDS011;69145;45.544;10.214;2023-04-15T04:38:35;5.03;;;1.40;;
79677;SDS011;69145;45.544;10.214;2023-04-15T04:41:01;2.87;;;1.20;;
79677;SDS011;69145;45.544;10.214;2023-04-15T04:43:26;4.07;;;1.17;;
79677;SDS011;69145;45.544;10.214;2023-04-15T04:45:52;4.05;;;1.23;;
79677;SDS011;69145;45.544;10.214;2023-04-15T04:48:17;4.23;;;1.33;;
79677;SDS011;69145;45.544;10.214;2023-04-15T04:50:43;3.83;;;1.03;;
79677;SDS011;69145;45.544;10.214;2023-04-15T04:53:09;3.22;;;1.17;;
79677;SDS011;69145;45.544;10.214;2023-04-15T04:55:34;3.75;;;0.93;;
79677;SDS011;69145;45.544;10.214;2023-04-15T04:58:03;4.38;;;1.65;;
79677;SDS011;69145;45.544;10.214;2023-04-15T05:00:28;2.88;;;1.13;;
79677;SDS011;69145;45.544;10.214;2023-04-15T05:02:57;3.80;;;1.02;;
79677;SDS011;69145;45.544;10.214;2023-04-15T05:05:23;4.03;;;1.23;;
79677;SDS011;69145;45.544;10.214;2023-04-15T05:07:48;3.63;;;1.05;;
79677;SDS011;69145;45.544;10.214;2023-04-15T05:10:14;2.40;;;0.90;;
79677;SDS011;69145;45.544;10.214;2023-04-15T05:12:41;2.90;;;0.88;;
79677;SDS011;69145;45.544;10.214;2023-04-15T05:15:07;3.47;;;1.13;;
79677;SDS011;69145;45.544;10.214;2023-04-15T05:17:32;2.95;;;0.98;;
79677;SDS011;69145;45.544;10.214;2023-04-15T05:19:59;3.53;;;1.20;;
79677;SDS011;69145;45.544;10.214;2023-04-15T05:22:24;3.55;;;1.10;;
79677;SDS011;69145;45.544;10.214;2023-04-15T05:24:50;4.00;;;0.98;;
79677;SDS011;69145;45.544;10.214;2023-04-15T05:27:15;3.23;;;1.33;;
79677;SDS011;69145;45.544;10.214;2023-04-15T05:29:41;4.10;;;1.53;;
79677;SDS011;69145;45.544;10.214;2023-04-15T05:32:06;3.00;;;1.13;;
79677;SDS011;69145;45.544;10.214;2023-04-15T05:34:32;3.47;;;1.60;;
79677;SDS011;69145;45.544;10.214;2023-04-15T05:36:57;3.17;;;1.00;;
79677;SDS011;69145;45.544;10.214;2023-04-15T05:39:22;3.67;;;1.27;;
79677;SDS011;69145;45.544;10.214;2023-04-15T05:41:48;5.43;;;1.10;;
79677;SDS011;69145;45.544;10.214;2023-04-15T05:44:13;4.60;;;1.67;;
79677;SDS011;69145;45.544;10.214;2023-04-15T05:46:38;2.90;;;1.10;;
79677;SDS011;69145;45.544;10.214;2023-04-15T05:49:04;3.53;;;1.30;;
79677;SDS011;69145;45.544;10.214;2023-04-15T05:51:29;3.13;;;1.10;;
79677;SDS011;69145;45.544;10.214;2023-04-15T05:53:55;5.03;;;1.42;;
79677;SDS011;69145;45.544;10.214;2023-04-15T05:56:20;4.07;;;1.25;;
79677;SDS011;69145;45.544;10.214;2023-04-15T05:58:46;4.32;;;1.17;;
79677;SDS011;69145;45.544;10.214;2023-04-15T06:01:11;5.50;;;1.30;;
79677;SDS011;69145;45.544;10.214;2023-04-15T06:03:36;3.93;;;1.47;;
79677;SDS011;69145;45.544;10.214;2023-04-15T06:06:02;3.22;;;1.48;;
79677;SDS011;69145;45.544;10.214;2023-04-15T06:08:28;3.67;;;1.30;;
79677;SDS011;69145;45.544;10.214;2023-04-15T06:10:53;4.18;;;1.27;;
79677;SDS011;69145;45.544;10.214;2023-04-15T06:13:19;8.23;;;1.58;;
79677;SDS011;69145;45.544;10.214;2023-04-15T06:15:44;5.95;;;1.95;;
79677;SDS011;69145;45.544;10.214;2023-04-15T06:18:10;4.43;;;1.73;;
79677;SDS011;69145;45.544;10.214;2023-04-15T06:20:35;3.50;;;1.20;;
79677;SDS011;69145;45.544;10.214;2023-04-15T06:23:01;4.85;;;1.75;;
79677;SDS011;69145;45.544;10.214;2023-04-15T06:25:26;5.18;;;1.30;;
79677;SDS011;69145;45.544;10.214;2023-04-15T06:27:52;3.97;;;1.40;;
79677;SDS011;69145;45.544;10.214;2023-04-15T06:30:17;4.33;;;1.43;;
79677;SDS011;69145;45.544;10.214;2023-04-15T06:32:43;5.18;;;1.77;;
79677;SDS011;69145;45.544;10.214;2023-04-15T06:35:08;4.07;;;1.35;;
79677;SDS011;69145;45.544;10.214;2023-04-15T06:37:34;4.05;;;1.35;;
79677;SDS011;69145;45.544;10.214;2023-04-15T06:39:59;2.87;;;1.13;;
79677;SDS011;69145;45.544;10.214;2023-04-15T06:42:24;4.40;;;1.60;;
79677;SDS011;69145;45.544;10.214;2023-04-15T06:44:50;6.03;;;1.52;;
79677;SDS011;69145;45.544;10.214;2023-04-15T06:47:15;4.27;;;1.20;;
79677;SDS011;69145;45.544;10.214;2023-04-15T06:49:41;4.53;;;1.30;;
79677;SDS011;69145;45.544;10.214;2023-04-15T06:52:07;4.07;;;1.65;;
79677;SDS011;69145;45.544;10.214;2023-04-15T06:54:32;4.55;;;1.30;;
79677;SDS011;69145;45.544;10.214;2023-04-15T06:56:58;4.53;;;1.70;;
79677;SDS011;69145;45.544;10.214;2023-04-15T06:59:23;7.53;;;1.90;;
79677;SDS011;69145;45.544;10.214;2023-04-15T07:01:49;5.90;;;1.75;;
79677;SDS011;69145;45.544;10.214;2023-04-15T07:04:14;5.78;;;2.05;;
79677;SDS011;69145;45.544;10.214;2023-04-15T07:06:39;5.18;;;2.20;;
79677;SDS011;69145;45.544;10.214;2023-04-15T07:09:06;4.53;;;1.77;;
79677;SDS011;69145;45.544;10.214;2023-04-15T07:11:31;5.80;;;2.00;;
79677;SDS011;69145;45.544;10.214;2023-04-15T07:13:56;4.20;;;1.73;;
79677;SDS011;69145;45.544;10.214;2023-04-15T07:16:22;4.60;;;1.60;;
79677;SDS011;69145;45.544;10.214;2023-04-15T07:18:48;3.50;;;1.70;;
79677;SDS011;69145;45.544;10.214;2023-04-15T07:21:13;4.90;;;1.90;;
79677;SDS011;69145;45.544;10.214;2023-04-15T07:23:38;5.00;;;1.65;;
79677;SDS011;69145;45.544;10.214;2023-04-15T07:26:04;4.03;;;1.45;;
79677;SDS011;69145;45.544;10.214;2023-04-15T07:28:29;5.05;;;1.92;;
79677;SDS011;69145;45.544;10.214;2023-04-15T07:30:55;4.35;;;1.65;;
79677;SDS011;69145;45.544;10.214;2023-04-15T07:33:23;5.55;;;1.95;;
79677;SDS011;69145;45.544;10.214;2023-04-15T07:35:49;6.30;;;1.73;;
79677;SDS011;69145;45.544;10.214;2023-04-15T07:38:14;3.67;;;1.42;;
79677;SDS011;69145;45.544;10.214;2023-04-15T07:40:40;4.88;;;1.88;;
79677;SDS011;69145;45.544;10.214;2023-04-15T07:43:06;5.70;;;1.52;;
79677;SDS011;69145;45.544;10.214;2023-04-15T07:45:33;4.32;;;1.48;;
79677;SDS011;69145;45.544;10.214;2023-04-15T07:47:59;4.93;;;1.80;;
79677;SDS011;69145;45.544;10.214;2023-04-15T07:50:25;5.18;;;1.52;;
79677;SDS011;69145;45.544;10.214;2023-04-15T07:52:51;4.10;;;1.67;;
79677;SDS011;69145;45.544;10.214;2023-04-15T07:55:17;4.18;;;1.75;;
79677;SDS011;69145;45.544;10.214;2023-04-15T07:57:45;4.30;;;2.05;;
79677;SDS011;69145;45.544;10.214;2023-04-15T08:00:11;6.55;;;1.63;;
79677;SDS011;69145;45.544;10.214;2023-04-15T08:02:37;5.20;;;1.75;;
79677;SDS011;69145;45.544;10.214;2023-04-15T08:05:03;4.47;;;1.50;;
79677;SDS011;69145;45.544;10.214;2023-04-15T08:07:29;4.78;;;1.92;;
79677;SDS011;69145;45.544;10.214;2023-04-15T08:09:55;3.95;;;1.75;;
79677;SDS011;69145;45.544;10.214;2023-04-15T08:12:20;5.45;;;1.65;;
79677;SDS011;69145;45.544;10.214;2023-04-15T08:14:46;4.47;;;1.75;;
79677;SDS011;69145;45.544;10.214;2023-04-15T08:17:11;5.25;;;2.08;;
79677;SDS011;69145;45.544;10.214;2023-04-15T08:19:37;3.42;;;1.40;;
79677;SDS011;69145;45.544;10.214;2023-04-15T08:22:02;5.13;;;1.52;;
79677;SDS011;69145;45.544;10.214;2023-04-15T08:24:28;4.80;;;1.80;;
79677;SDS011;69145;45.544;10.214;2023-04-15T08:26:55;4.57;;;1.75;;
79677;SDS011;69145;45.544;10.214;2023-04-15T08:29:21;3.95;;;1.83;;
79677;SDS011;69145;45.544;10.214;2023-04-15T08:31:47;3.42;;;1.70;;
79677;SDS011;69145;45.544;10.214;2023-04-15T08:34:12;4.00;;;1.75;;
79677;SDS011;69145;45.544;10.214;2023-04-15T08:36:38;5.47;;;2.10;;
79677;SDS011;69145;45.544;10.214;2023-04-15T08:39:04;4.65;;;2.17;;
79677;SDS011;69145;45.544;10.214;2023-04-15T08:41:39;4.60;;;2.10;;
79677;SDS011;69145;45.544;10.214;2023-04-15T08:44:09;4.32;;;2.10;;
79677;SDS011;69145;45.544;10.214;2023-04-15T08:46:35;5.35;;;1.95;;
79677;SDS011;69145;45.544;10.214;2023-04-15T08:49:02;4.07;;;1.85;;
79677;SDS011;69145;45.544;10.214;2023-04-15T08:51:29;4.32;;;1.85;;
79677;SDS011;69145;45.544;10.214;2023-04-15T08:53:55;5.50;;;2.20;;
79677;SDS011;69145;45.544;10.214;2023-04-15T08:56:24;4.63;;;2.20;;
79677;SDS011;69145;45.544;10.214;2023-04-15T08:58:53;5.20;;;2.30;;
79677;SDS011;69145;45.544;10.214;2023-04-15T09:01:19;4.13;;;2.05;;
79677;SDS011;69145;45.544;10.214;2023-04-15T09:03:45;4.93;;;2.00;;
79677;SDS011;69145;45.544;10.214;2023-04-15T09:06:13;4.70;;;2.33;;
79677;SDS011;69145;45.544;10.214;2023-04-15T09:08:42;4.25;;;2.35;;
79677;SDS011;69145;45.544;10.214;2023-04-15T09:11:08;5.22;;;2.50;;
79677;SDS011;69145;45.544;10.214;2023-04-15T09:13:34;5.93;;;2.60;;
79677;SDS011;69145;45.544;10.214;2023-04-15T09:16:03;5.07;;;2.40;;
79677;SDS011;69145;45.544;10.214;2023-04-15T09:18:30;6.07;;;2.30;;
79677;SDS011;69145;45.544;10.214;2023-04-15T09:21:06;5.50;;;2.38;;
79677;SDS011;69145;45.544;10.214;2023-04-15T09:23:35;5.15;;;1.98;;
79677;SDS011;69145;45.544;10.214;2023-04-15T09:26:01;3.67;;;1.98;;
79677;SDS011;69145;45.544;10.214;2023-04-15T09:28:27;7.05;;;2.15;;
79677;SDS011;69145;45.544;10.214;2023-04-15T09:30:56;5.45;;;2.60;;
79677;SDS011;69145;45.544;10.214;2023-04-15T09:33:23;5.05;;;2.25;;
79677;SDS011;69145;45.544;10.214;2023-04-15T09:35:57;5.85;;;2.53;;
79677;SDS011;69145;45.544;10.214;2023-04-15T09:38:27;4.20;;;2.35;;
79677;SDS011;69145;45.544;10.214;2023-04-15T09:40:53;5.93;;;3.10;;
79677;SDS011;69145;45.544;10.214;2023-04-15T09:43:18;4.30;;;1.95;;
79677;SDS011;69145;45.544;10.214;2023-04-15T09:45:52;4.43;;;2.30;;
79677;SDS011;69145;45.544;10.214;2023-04-15T09:48:21;5.43;;;2.55;;
79677;SDS011;69145;45.544;10.214;2023-04-15T09:50:50;4.20;;;2.42;;
79677;SDS011;69145;45.544;10.214;2023-04-15T09:53:18;4.75;;;2.63;;
79677;SDS011;69145;45.544;10.214;2023-04-15T09:55:48;4.63;;;2.50;;
79677;SDS011;69145;45.544;10.214;2023-04-15T09:58:22;5.75;;;2.47;;
79677;SDS011;69145;45.544;10.214;2023-04-15T10:00:55;5.25;;;2.80;;
79677;SDS011;69145;45.544;10.214;2023-04-15T10:05:51;6.03;;;3.15;;
79677;SDS011;69145;45.544;10.214;2023-04-15T10:08:20;5.15;;;2.60;;
79677;SDS011;69145;45.544;10.214;2023-04-15T10:10:47;4.95;;;2.47;;
79677;SDS011;69145;45.544;10.214;2023-04-15T10:13:13;5.90;;;3.35;;
79677;SDS011;69145;45.544;10.214;2023-04-15T10:15:43;4.72;;;2.50;;
79677;SDS011;69145;45.544;10.214;2023-04-15T10:18:11;6.03;;;3.88;;
79677;SDS011;69145;45.544;10.214;2023-04-15T10:20:40;5.05;;;3.00;;
79677;SDS011;69145;45.544;10.214;2023-04-15T10:23:08;4.75;;;2.80;;
79677;SDS011;69145;45.544;10.214;2023-04-15T10:25:33;4.88;;;2.72;;
79677;SDS011;69145;45.544;10.214;2023-04-15T10:27:59;4.70;;;2.58;;
79677;SDS011;69145;45.544;10.214;2023-04-15T10:30:24;5.75;;;3.22;;
79677;SDS011;69145;45.544;10.214;2023-04-15T10:32:50;6.70;;;3.53;;
79677;SDS011;69145;45.544;10.214;2023-04-15T10:35:16;4.78;;;3.00;;
79677;SDS011;69145;45.544;10.214;2023-04-15T10:37:42;6.63;;;2.95;;
79677;SDS011;69145;45.544;10.214;2023-04-15T10:40:27;5.18;;;3.20;;
79677;SDS011;69145;45.544;10.214;2023-04-15T10:42:56;6.57;;;3.20;;
79677;SDS011;69145;45.544;10.214;2023-04-15T10:45:43;4.63;;;3.15;;
79677;SDS011;69145;45.544;10.214;2023-04-15T10:48:09;5.50;;;3.00;;
79677;SDS011;69145;45.544;10.214;2023-04-15T10:50:40;5.30;;;3.13;;
79677;SDS011;69145;45.544;10.214;2023-04-15T10:53:29;4.75;;;2.92;;
79677;SDS011;69145;45.544;10.214;2023-04-15T10:55:58;6.15;;;3.75;;
79677;SDS011;69145;45.544;10.214;2023-04-15T10:58:23;4.63;;;2.30;;
79677;SDS011;69145;45.544;10.214;2023-04-15T11:00:50;5.40;;;3.10;;
79677;SDS011;69145;45.544;10.214;2023-04-15T11:03:20;5.82;;;2.95;;
79677;SDS011;69145;45.544;10.214;2023-04-15T11:06:01;4.60;;;2.85;;
79677;SDS011;69145;45.544;10.214;2023-04-15T11:09:00;5.00;;;2.50;;
79677;SDS011;69145;45.544;10.214;2023-04-15T11:11:18;6.60;;;3.40;;
79677;SDS011;69145;45.544;10.214;2023-04-15T11:13:47;4.95;;;3.22;;
79677;SDS011;69145;45.544;10.214;2023-04-15T11:16:14;5.47;;;3.45;;
79677;SDS011;69145;45.544;10.214;2023-04-15T11:18:40;6.15;;;3.65;;
79677;SDS011;69145;45.544;10.214;2023-04-15T11:21:06;5.13;;;3.10;;
79677;SDS011;69145;45.544;10.214;2023-04-15T11:23:33;5.13;;;2.95;;
79677;SDS011;69145;45.544;10.214;2023-04-15T11:26:08;5.28;;;3.30;;
79677;SDS011;69145;45.544;10.214;2023-04-15T11:28:36;5.50;;;3.10;;
79677;SDS011;69145;45.544;10.214;2023-04-15T11:31:06;5.80;;;2.70;;
79677;SDS011;69145;45.544;10.214;2023-04-15T11:33:35;6.22;;;3.22;;
79677;SDS011;69145;45.544;10.214;2023-04-15T11:36:01;5.60;;;3.30;;
79677;SDS011;69145;45.544;10.214;2023-04-15T11:38:28;5.13;;;2.67;;
79677;SDS011;69145;45.544;10.214;2023-04-15T11:40:53;5.07;;;3.15;;
79677;SDS011;69145;45.544;10.214;2023-04-15T11:43:19;6.35;;;3.47;;
79677;SDS011;69145;45.544;10.214;2023-04-15T11:45:59;6.60;;;2.80;;
79677;SDS011;69145;45.544;10.214;2023-04-15T11:51:00;5.28;;;2.90;;
79677;SDS011;69145;45.544;10.214;2023-04-15T11:56:18;4.60;;;2.95;;
79677;SDS011;69145;45.544;10.214;2023-04-15T11:58:45;5.13;;;2.92;;
79677;SDS011;69145;45.544;10.214;2023-04-15T12:01:11;5.60;;;2.78;;
79677;SDS011;69145;45.544;10.214;2023-04-15T12:03:41;5.22;;;2.70;;
79677;SDS011;69145;45.544;10.214;2023-04-15T12:06:12;5.43;;;2.90;;
79677;SDS011;69145;45.544;10.214;2023-04-15T12:13:52;5.07;;;3.00;;
79677;SDS011;69145;45.544;10.214;2023-04-15T12:18:53;5.80;;;3.08;;
79677;SDS011;69145;45.544;10.214;2023-04-15T12:21:23;6.38;;;3.00;;
79677;SDS011;69145;45.544;10.214;2023-04-15T12:23:50;5.13;;;2.78;;
79677;SDS011;69145;45.544;10.214;2023-04-15T12:26:24;5.30;;;2.72;;
79677;SDS011;69145;45.544;10.214;2023-04-15T12:29:00;5.10;;;2.78;;
79677;SDS011;69145;45.544;10.214;2023-04-15T12:31:30;5.30;;;3.03;;
79677;SDS011;69145;45.544;10.214;2023-04-15T12:33:56;6.30;;;2.65;;
79677;SDS011;69145;45.544;10.214;2023-04-15T12:36:23;5.70;;;2.80;;
79677;SDS011;69145;45.544;10.214;2023-04-15T12:38:48;5.28;;;3.22;;
79677;SDS011;69145;45.544;10.214;2023-04-15T12:41:14;5.43;;;2.83;;
79677;SDS011;69145;45.544;10.214;2023-04-15T12:43:40;7.25;;;2.97;;
79677;SDS011;69145;45.544;10.214;2023-04-15T12:46:06;5.57;;;2.85;;
79677;SDS011;69145;45.544;10.214;2023-04-15T12:48:32;6.45;;;3.33;;
79677;SDS011;69145;45.544;10.214;2023-04-15T12:50:58;5.78;;;3.53;;
79677;SDS011;69145;45.544;10.214;2023-04-15T12:53:24;5.63;;;3.30;;
79677;SDS011;69145;45.544;10.214;2023-04-15T12:55:50;5.78;;;3.22;;
79677;SDS011;69145;45.544;10.214;2023-04-15T12:58:16;5.97;;;3.22;;
79677;SDS011;69145;45.544;10.214;2023-04-15T13:00:41;5.57;;;3.38;;
79677;SDS011;69145;45.544;10.214;2023-04-15T13:03:06;5.57;;;3.13;;
79677;SDS011;69145;45.544;10.214;2023-04-15T13:05:32;7.70;;;3.10;;
79677;SDS011;69145;45.544;10.214;2023-04-15T13:07:57;5.50;;;3.03;;
79677;SDS011;69145;45.544;10.214;2023-04-15T13:10:23;5.73;;;2.97;;
79677;SDS011;69145;45.544;10.214;2023-04-15T13:12:48;8.05;;;4.38;;
79677;SDS011;69145;45.544;10.214;2023-04-15T13:15:17;6.28;;;3.45;;
79677;SDS011;69145;45.544;10.214;2023-04-15T13:17:44;5.38;;;3.40;;
79677;SDS011;69145;45.544;10.214;2023-04-15T13:20:10;6.03;;;3.47;;
79677;SDS011;69145;45.544;10.214;2023-04-15T13:22:35;4.90;;;3.03;;
79677;SDS011;69145;45.544;10.214;2023-04-15T13:25:01;5.90;;;3.60;;
79677;SDS011;69145;45.544;10.214;2023-04-15T13:27:26;8.00;;;3.30;;
79677;SDS011;69145;45.544;10.214;2023-04-15T13:29:52;5.10;;;3.47;;
79677;SDS011;69145;45.544;10.214;2023-04-15T13:32:18;4.95;;;3.15;;
79677;SDS011;69145;45.544;10.214;2023-04-15T13:34:43;5.77;;;3.17;;
79677;SDS011;69145;45.544;10.214;2023-04-15T13:37:08;5.70;;;3.57;;
79677;SDS011;69145;45.544;10.214;2023-04-15T13:39:34;5.68;;;3.50;;
79677;SDS011;69145;45.544;10.214;2023-04-15T13:41:59;5.00;;;3.05;;
79677;SDS011;69145;45.544;10.214;2023-04-15T13:44:25;5.72;;;3.30;;
79677;SDS011;69145;45.544;10.214;2023-04-15T13:46:50;5.33;;;3.13;;
79677;SDS011;69145;45.544;10.214;2023-04-15T13:49:16;7.63;;;3.75;;
79677;SDS011;69145;45.544;10.214;2023-04-15T13:51:41;4.53;;;3.35;;
79677;SDS011;69145;45.544;10.214;2023-04-15T13:54:07;5.70;;;3.53;;
79677;SDS011;69145;45.544;10.214;2023-04-15T13:56:32;6.03;;;3.60;;
79677;SDS011;69145;45.544;10.214;2023-04-15T13:58:58;6.15;;;3.90;;
79677;SDS011;69145;45.544;10.214;2023-04-15T14:01:26;5.82;;;3.67;;
79677;SDS011;69145;45.544;10.214;2023-04-15T14:03:51;5.45;;;3.45;;
79677;SDS011;69145;45.544;10.214;2023-04-15T14:06:17;6.53;;;3.70;;
79677;SDS011;69145;45.544;10.214;2023-04-15T14:08:42;5.50;;;3.17;;
79677;SDS011;69145;45.544;10.214;2023-04-15T14:11:07;6.63;;;3.73;;
79677;SDS011;69145;45.544;10.214;2023-04-15T14:13:33;6.05;;;3.22;;
79677;SDS011;69145;45.544;10.214;2023-04-15T14:16:00;5.30;;;3.60;;
79677;SDS011;69145;45.544;10.214;2023-04-15T14:18:25;5.68;;;3.58;;
79677;SDS011;69145;45.544;10.214;2023-04-15T14:20:51;5.95;;;3.85;;
79677;SDS011;69145;45.544;10.214;2023-04-15T14:23:22;6.13;;;3.67;;
79677;SDS011;69145;45.544;10.214;2023-04-15T14:25:47;5.13;;;3.20;;
79677;SDS011;69145;45.544;10.214;2023-04-15T14:28:16;5.70;;;3.78;;
79677;SDS011;69145;45.544;10.214;2023-04-15T14:30:41;5.55;;;3.78;;
79677;SDS011;69145;45.544;10.214;2023-04-15T14:33:06;5.20;;;3.70;;
79677;SDS011;69145;45.544;10.214;2023-04-15T14:35:32;5.20;;;3.30;;
79677;SDS011;69145;45.544;10.214;2023-04-15T14:37:57;7.10;;;3.47;;
79677;SDS011;69145;45.544;10.214;2023-04-15T14:40:22;4.77;;;2.77;;
79677;SDS011;69145;45.544;10.214;2023-04-15T14:42:48;5.32;;;3.13;;
79677;SDS011;69145;45.544;10.214;2023-04-15T14:45:13;5.03;;;3.10;;